createdAt,value
2018-02-15T00:01:24.309Z,67.96
2018-02-15T00:03:52.033Z,67.81
2018-02-15T00:06:19.484Z,67.99
2018-02-15T00:08:46.933Z,68.04
2018-02-15T00:11:14.489Z,68.66
2018-02-15T00:13:41.968Z,68.49
2018-02-15T00:16:09.889Z,68.39
2018-02-15T00:18:37.339Z,68.71
2018-02-15T00:21:04.792Z,68.90
2018-02-15T00:23:32.265Z,68.81
2018-02-15T00:25:59.925Z,68.63
2018-02-15T00:28:27.448Z,68.71
2018-02-15T00:30:54.896Z,68.55
2018-02-15T00:33:22.361Z,68.24
2018-02-15T00:35:49.829Z,68.14
2018-02-15T00:38:17.274Z,68.25
2018-02-15T00:40:45.104Z,67.95
2018-02-15T00:43:12.600Z,68.19
2018-02-15T00:45:40.046Z,68.35
2018-02-15T00:48:07.516Z,67.82
2018-02-15T00:50:34.965Z,67.76
2018-02-15T00:53:02.757Z,67.49
2018-02-15T00:55:30.200Z,67.49
2018-02-15T00:57:57.647Z,67.58
2018-02-15T01:00:25.120Z,67.12
2018-02-15T01:02:52.561Z,67.33
2018-02-15T01:05:20.037Z,67.05
2018-02-15T01:07:47.488Z,67.34
2018-02-15T01:10:14.937Z,67.55
2018-02-15T01:12:42.404Z,67.33
2018-02-15T01:15:09.849Z,67.39
2018-02-15T01:17:37.460Z,66.97
2018-02-15T01:20:04.905Z,67.49
2018-02-15T01:22:32.364Z,67.49
2018-02-15T01:24:59.856Z,67.68
2018-02-15T01:27:27.305Z,67.75
2018-02-15T01:29:54.901Z,67.42
2018-02-15T01:32:22.372Z,67.58
2018-02-15T01:34:49.812Z,67.35
2018-02-15T01:37:17.304Z,67.15
2018-02-15T01:39:44.749Z,67.00
2018-02-15T01:42:12.225Z,67.35
2018-02-15T01:44:39.670Z,67.30
2018-02-15T01:47:07.116Z,67.28
2018-02-15T01:49:34.612Z,66.96
2018-02-15T01:52:02.060Z,66.88
2018-02-15T01:54:29.979Z,66.95
2018-02-15T01:56:57.429Z,66.88
2018-02-15T01:59:24.909Z,66.74
2018-02-15T02:01:52.378Z,66.58
2018-02-15T02:04:19.824Z,66.54
2018-02-15T02:06:47.292Z,66.36
2018-02-15T02:09:14.754Z,66.56
2018-02-15T02:11:42.201Z,66.17
2018-02-15T02:14:09.668Z,65.63
2018-02-15T02:16:37.113Z,65.45
2018-02-15T02:19:04.580Z,65.64
2018-02-15T02:21:32.050Z,65.61
2018-02-15T02:23:59.697Z,65.41
2018-02-15T02:26:27.172Z,65.62
2018-02-15T02:28:54.653Z,65.63
2018-02-15T02:31:22.123Z,65.73
2018-02-15T02:33:49.590Z,66.02
2018-02-15T02:36:17.045Z,66.03
2018-02-15T02:38:44.513Z,66.20
2018-02-15T02:41:11.960Z,66.19
2018-02-15T02:43:39.472Z,66.31
2018-02-15T02:46:06.937Z,66.60
2018-02-15T02:48:34.389Z,66.57
2018-02-15T02:51:01.866Z,66.64
2018-02-15T02:53:29.352Z,66.64
2018-02-15T02:55:57.065Z,66.13
2018-02-15T02:58:24.508Z,66.20
2018-02-15T03:00:51.968Z,66.15
2018-02-15T03:03:19.437Z,66.39
2018-02-15T03:05:46.894Z,66.63
2018-02-15T03:08:14.388Z,66.55
2018-02-15T03:10:41.834Z,66.65
2018-02-15T03:13:09.317Z,66.60
2018-02-15T03:15:36.802Z,66.66
2018-02-15T03:18:04.288Z,66.67
2018-02-15T03:20:31.800Z,66.39
2018-02-15T03:22:59.392Z,66.52
2018-02-15T03:25:26.849Z,66.81
2018-02-15T03:27:54.317Z,66.47
2018-02-15T03:30:21.762Z,66.57
2018-02-15T03:32:49.258Z,66.67
2018-02-15T03:35:16.716Z,66.15
2018-02-15T03:37:44.170Z,66.19
2018-02-15T03:40:11.661Z,66.02
2018-02-15T03:42:39.108Z,65.82
2018-02-15T03:45:06.753Z,65.91
2018-02-15T03:47:34.200Z,65.61
2018-02-15T03:50:01.657Z,65.81
2018-02-15T03:52:29.126Z,65.18
2018-02-15T03:54:56.691Z,65.47
2018-02-15T03:57:24.163Z,65.60
2018-02-15T03:59:51.608Z,64.81
2018-02-15T04:02:19.056Z,64.67
2018-02-15T04:04:46.529Z,65.46
2018-02-15T04:07:13.997Z,65.42
2018-02-15T04:09:41.860Z,65.90
2018-02-15T04:12:09.304Z,65.79
2018-02-15T04:14:36.778Z,65.67
2018-02-15T04:17:04.252Z,65.65
2018-02-15T04:19:31.705Z,65.64
2018-02-15T04:21:59.205Z,65.59
2018-02-15T04:24:26.662Z,65.68
2018-02-15T04:26:54.111Z,65.96
2018-02-15T04:29:21.825Z,65.87
2018-02-15T04:31:49.268Z,65.82
2018-02-15T04:34:16.740Z,66.59
2018-02-15T04:36:44.233Z,66.74
2018-02-15T04:39:11.679Z,66.37
2018-02-15T04:41:39.121Z,66.54
2018-02-15T04:44:06.752Z,66.83
2018-02-15T04:46:34.225Z,66.89
2018-02-15T04:49:01.681Z,66.85
2018-02-15T04:51:29.257Z,66.62
2018-02-15T04:53:56.708Z,66.74
2018-02-15T04:56:24.166Z,66.84
2018-02-15T04:58:51.645Z,66.43
2018-02-15T05:01:19.096Z,66.39
2018-02-15T05:03:47.496Z,66.14
2018-02-15T05:06:15.305Z,66.12
2018-02-15T05:08:42.789Z,66.40
2018-02-15T05:11:10.237Z,66.41
2018-02-15T05:13:37.716Z,66.53
2018-02-15T05:16:05.186Z,65.98
2018-02-15T05:18:32.651Z,65.63
2018-02-15T05:21:00.361Z,65.76
2018-02-15T05:23:27.870Z,65.62
2018-02-15T05:25:55.323Z,65.46
2018-02-15T05:28:22.944Z,65.32
2018-02-15T05:30:50.396Z,65.15
2018-02-15T05:33:17.847Z,64.72
2018-02-15T05:35:45.552Z,64.56
2018-02-15T05:38:13.004Z,64.55
2018-02-15T05:40:40.467Z,64.33
2018-02-15T05:43:08.300Z,64.31
2018-02-15T05:45:35.744Z,64.72
2018-02-15T05:48:03.192Z,65.55
2018-02-15T05:50:30.984Z,66.18
2018-02-15T05:52:58.428Z,67.28
2018-02-15T05:55:25.981Z,68.65
2018-02-15T05:57:53.612Z,69.80
2018-02-15T06:00:21.061Z,70.57
2018-02-15T06:02:48.512Z,71.33
2018-02-15T06:05:16.000Z,73.01
2018-02-15T06:07:43.444Z,73.66
2018-02-15T06:10:10.892Z,75.99
2018-02-15T06:12:38.536Z,77.12
2018-02-15T06:15:06.000Z,78.71
2018-02-15T06:17:33.440Z,79.71
2018-02-15T06:20:01.240Z,81.82
2018-02-15T06:22:28.702Z,83.41
2018-02-15T06:24:56.149Z,83.22
2018-02-15T06:27:23.620Z,83.20
2018-02-15T06:29:51.077Z,82.46
2018-02-15T06:32:18.539Z,82.04
2018-02-15T06:34:46.161Z,82.57
2018-02-15T06:37:13.640Z,83.37
2018-02-15T06:39:41.093Z,82.78
2018-02-15T06:42:08.724Z,82.72
2018-02-15T06:44:36.174Z,83.03
2018-02-15T06:47:03.645Z,83.94
2018-02-15T06:49:31.120Z,84.49
2018-02-15T06:51:58.583Z,85.18
2018-02-15T06:54:26.141Z,86.59
2018-02-15T06:56:53.609Z,87.23
2018-02-15T06:59:21.085Z,88.98
2018-02-15T07:01:48.585Z,89.05
2018-02-15T07:04:16.148Z,90.53
2018-02-15T07:06:43.605Z,91.06
2018-02-15T07:09:11.093Z,90.58
2018-02-15T07:11:38.537Z,90.47
2018-02-15T07:14:06.044Z,89.77
2018-02-15T07:16:33.489Z,90.35
2018-02-15T07:19:00.932Z,90.57
2018-02-15T07:21:28.420Z,91.18
2018-02-15T07:23:55.867Z,91.61
2018-02-15T07:26:23.544Z,91.00
2018-02-15T07:28:51.181Z,90.97
2018-02-15T07:31:18.633Z,91.03
2018-02-15T07:33:46.105Z,91.11
2018-02-15T07:36:13.574Z,91.41
2018-02-15T07:38:41.044Z,91.66
2018-02-15T07:41:08.513Z,91.55
2018-02-15T07:43:35.965Z,91.75
2018-02-15T07:46:03.449Z,91.73
2018-02-15T07:48:30.888Z,92.43
2018-02-15T07:50:58.372Z,91.97
2018-02-15T07:53:25.865Z,92.51
2018-02-15T07:55:53.320Z,92.38
2018-02-15T07:58:20.768Z,92.55
2018-02-15T08:00:48.236Z,92.63
2018-02-15T08:03:15.693Z,92.34
2018-02-15T08:05:43.142Z,92.17
2018-02-15T08:08:10.808Z,92.13
2018-02-15T08:10:38.265Z,92.02
2018-02-15T08:13:05.785Z,91.82
2018-02-15T08:15:33.281Z,92.18
2018-02-15T08:18:00.744Z,92.16
2018-02-15T08:20:28.432Z,92.05
2018-02-15T08:22:55.879Z,91.89
2018-02-15T08:25:23.380Z,92.00
2018-02-15T08:27:50.857Z,91.90
2018-02-15T08:30:18.319Z,92.33
2018-02-15T08:32:46.029Z,91.92
2018-02-15T08:35:13.476Z,91.90
2018-02-15T08:37:40.920Z,91.57
2018-02-15T08:40:08.386Z,91.57
2018-02-15T08:42:35.841Z,91.43
2018-02-15T08:45:03.468Z,91.43
2018-02-15T08:47:30.920Z,91.46
2018-02-15T08:49:58.377Z,92.05
2018-02-15T08:52:25.869Z,91.86
2018-02-15T08:54:53.411Z,91.75
2018-02-15T08:57:21.025Z,91.71
2018-02-15T08:59:48.472Z,92.03
2018-02-15T09:02:15.941Z,91.98
2018-02-15T09:04:43.405Z,91.56
2018-02-15T09:07:10.861Z,91.36
2018-02-15T09:09:38.485Z,90.72
2018-02-15T09:12:05.936Z,90.84
2018-02-15T09:14:33.409Z,90.90
2018-02-15T09:17:00.896Z,90.71
2018-02-15T09:19:28.345Z,90.64
2018-02-15T09:21:55.915Z,90.46
2018-02-15T09:24:23.365Z,90.17
2018-02-15T09:26:50.821Z,89.75
2018-02-15T09:29:18.289Z,89.72
2018-02-15T09:31:45.737Z,89.27
2018-02-15T09:34:13.476Z,88.87
2018-02-15T09:36:40.937Z,89.10
2018-02-15T09:39:08.381Z,89.51
2018-02-15T09:41:35.857Z,88.56
2018-02-15T09:44:03.320Z,88.47
2018-02-15T09:46:30.801Z,89.21
2018-02-15T09:48:58.257Z,88.49
2018-02-15T09:51:25.707Z,88.77
2018-02-15T09:53:53.176Z,89.15
2018-02-15T09:56:20.665Z,88.91
2018-02-15T09:58:48.145Z,89.84
2018-02-15T10:01:15.593Z,89.46
2018-02-15T10:03:43.059Z,89.31
2018-02-15T10:06:10.553Z,89.56
2018-02-15T10:08:38.035Z,89.96
2018-02-15T10:11:05.577Z,90.31
2018-02-15T10:13:33.221Z,89.47
2018-02-15T10:16:00.680Z,89.95
2018-02-15T10:18:28.171Z,90.64
2018-02-15T10:20:55.636Z,90.70
2018-02-15T10:23:23.128Z,90.73
2018-02-15T10:25:50.577Z,89.73
2018-02-15T10:28:18.021Z,89.21
2018-02-15T10:30:45.488Z,89.62
2018-02-15T10:33:12.941Z,89.90
2018-02-15T10:35:40.427Z,89.68
2018-02-15T10:38:07.881Z,89.40
2018-02-15T10:40:35.326Z,90.09
2018-02-15T10:43:02.808Z,90.01
2018-02-15T10:45:30.270Z,89.37
2018-02-15T10:47:58.028Z,89.93
2018-02-15T10:50:25.477Z,90.53
2018-02-15T10:52:52.937Z,90.53
2018-02-15T10:55:20.409Z,90.78
2018-02-15T10:57:47.905Z,90.24
2018-02-15T11:00:15.525Z,90.05
2018-02-15T11:02:43.032Z,90.22
2018-02-15T11:05:16.064Z,90.86
2018-02-15T11:07:43.516Z,91.01
2018-02-15T11:10:10.973Z,90.98
2018-02-15T11:12:38.437Z,90.65
2018-02-15T11:15:05.895Z,90.54
2018-02-15T11:17:33.384Z,90.42
2018-02-15T11:20:00.836Z,90.40
2018-02-15T11:22:28.340Z,91.10
2018-02-15T11:24:56.022Z,90.55
2018-02-15T11:27:23.477Z,90.33
2018-02-15T11:29:51.118Z,90.62
2018-02-15T11:32:18.581Z,91.33
2018-02-15T11:34:46.036Z,90.63
2018-02-15T11:37:13.505Z,91.02
2018-02-15T11:39:40.960Z,90.81
2018-02-15T11:42:08.536Z,90.50
2018-02-15T11:44:35.990Z,91.05
2018-02-15T11:47:03.441Z,90.48
2018-02-15T11:49:30.936Z,90.53
2018-02-15T11:51:58.381Z,90.37
2018-02-15T11:54:26.101Z,90.70
2018-02-15T11:56:53.553Z,90.31
2018-02-15T11:59:21.010Z,90.03
2018-02-15T12:01:48.591Z,90.06
2018-02-15T12:04:16.064Z,90.52
2018-02-15T12:06:43.552Z,90.13
2018-02-15T12:09:11.000Z,89.37
2018-02-15T12:11:38.461Z,89.34
2018-02-15T12:14:05.925Z,90.04
2018-02-15T12:16:33.380Z,89.18
2018-02-15T12:19:00.992Z,89.11
2018-02-15T12:21:28.441Z,89.47
2018-02-15T12:23:55.899Z,88.83
2018-02-15T12:26:23.393Z,88.99
2018-02-15T12:28:50.860Z,88.52
2018-02-15T12:31:18.708Z,88.11
2018-02-15T12:33:46.152Z,88.04
2018-02-15T12:36:13.613Z,87.61
2018-02-15T12:38:41.108Z,88.46
2018-02-15T12:41:08.568Z,88.76
2018-02-15T12:43:36.301Z,88.46
2018-02-15T12:46:03.797Z,89.22
2018-02-15T12:48:31.300Z,88.54
2018-02-15T12:50:58.777Z,88.39
2018-02-15T12:53:26.265Z,89.01
2018-02-15T12:55:53.767Z,89.07
2018-02-15T12:58:21.243Z,88.91
2018-02-15T13:00:48.696Z,88.95
2018-02-15T13:03:16.172Z,89.59
2018-02-15T13:05:43.628Z,89.71
2018-02-15T13:08:11.143Z,88.77
2018-02-15T13:10:38.592Z,89.40
2018-02-15T13:13:18.248Z,89.06
2018-02-15T13:15:57.533Z,89.07
2018-02-15T13:18:25.104Z,89.11
2018-02-15T13:20:52.548Z,88.47
2018-02-15T13:23:20.002Z,87.68
2018-02-15T13:25:47.488Z,87.43
2018-02-15T13:28:26.849Z,87.29
2018-02-15T13:30:54.326Z,87.44
2018-02-15T13:33:21.789Z,87.09
2018-02-15T13:35:49.309Z,86.35
2018-02-15T13:38:16.785Z,86.84
2018-02-15T13:40:44.228Z,86.50
2018-02-15T13:43:11.700Z,87.31
2018-02-15T13:45:39.157Z,87.61
2018-02-15T13:48:06.769Z,87.51
2018-02-15T13:50:34.237Z,87.87
2018-02-15T13:53:01.689Z,87.95
2018-02-15T13:55:29.183Z,87.89
2018-02-15T13:57:56.628Z,88.22
2018-02-15T14:00:24.328Z,88.16
2018-02-15T14:02:51.769Z,88.50
2018-02-15T14:05:19.214Z,89.43
2018-02-15T14:07:47.660Z,88.90
2018-02-15T14:10:15.102Z,89.11
2018-02-15T14:12:42.597Z,89.28
2018-02-15T14:15:10.064Z,89.54
2018-02-15T14:17:37.513Z,89.49
2018-02-15T14:20:05.024Z,89.80
2018-02-15T14:22:32.472Z,90.09
2018-02-15T14:24:59.980Z,89.71
2018-02-15T14:27:27.424Z,89.78
2018-02-15T14:29:54.930Z,89.67
2018-02-15T14:32:22.433Z,90.13
2018-02-15T14:34:49.901Z,90.09
2018-02-15T14:37:17.396Z,89.69
2018-02-15T14:39:44.885Z,90.03
2018-02-15T14:42:12.333Z,90.35
2018-02-15T14:44:39.808Z,90.10
2018-02-15T14:47:07.272Z,89.53
2018-02-15T14:49:34.936Z,89.11
2018-02-15T14:52:02.403Z,89.59
2018-02-15T14:54:29.877Z,89.46
2018-02-15T14:56:57.380Z,87.03
2018-02-15T14:59:24.828Z,86.05
2018-02-15T15:01:52.453Z,86.42
2018-02-15T15:04:19.992Z,89.20
2018-02-15T15:06:47.461Z,88.18
2018-02-15T15:09:14.932Z,88.26
2018-02-15T15:11:42.388Z,87.76
2018-02-15T15:14:10.062Z,89.46
2018-02-15T15:16:37.513Z,89.68
2018-02-15T15:19:04.965Z,89.42
2018-02-15T15:21:32.433Z,89.12
2018-02-15T15:23:59.886Z,89.66
2018-02-15T15:26:27.550Z,91.74
2018-02-15T15:28:55.000Z,92.49
2018-02-15T15:31:22.452Z,93.32
2018-02-15T15:33:50.704Z,93.40
2018-02-15T15:36:18.156Z,93.64
2018-02-15T15:38:45.749Z,93.50
2018-02-15T15:41:13.202Z,92.99
2018-02-15T15:43:40.658Z,92.15
2018-02-15T15:46:08.153Z,92.38
2018-02-15T15:48:35.601Z,91.51
2018-02-15T15:51:03.324Z,91.22
2018-02-15T15:53:30.788Z,91.60
2018-02-15T15:55:58.237Z,90.50
2018-02-15T15:58:25.730Z,90.67
2018-02-15T16:00:53.189Z,91.00
2018-02-15T16:03:20.840Z,91.01
2018-02-15T16:05:48.281Z,90.43
2018-02-15T16:08:15.720Z,90.85
2018-02-15T16:10:43.221Z,92.55
2018-02-15T16:13:10.678Z,92.48
2018-02-15T16:15:38.177Z,92.15
2018-02-15T16:18:05.638Z,92.08
2018-02-15T16:20:33.105Z,93.06
2018-02-15T16:23:00.576Z,93.07
2018-02-15T16:25:28.053Z,93.13
2018-02-15T16:27:55.776Z,92.51
2018-02-15T16:30:23.225Z,93.27
2018-02-15T16:32:50.678Z,93.86
2018-02-15T16:35:18.147Z,93.63
2018-02-15T16:37:45.597Z,93.27
2018-02-15T16:40:13.102Z,93.73
2018-02-15T16:42:40.587Z,94.34
2018-02-15T16:45:08.082Z,93.74
2018-02-15T16:47:35.558Z,94.20
2018-02-15T16:50:03.006Z,94.50
2018-02-15T16:52:30.780Z,94.65
2018-02-15T16:54:58.244Z,94.80
2018-02-15T16:57:25.693Z,95.39
2018-02-15T16:59:53.161Z,95.17
2018-02-15T17:02:20.612Z,94.96
2018-02-15T17:04:48.333Z,95.22
2018-02-15T17:07:15.784Z,95.60
2018-02-15T17:09:43.241Z,95.49
2018-02-15T17:12:10.734Z,94.86
2018-02-15T17:14:38.189Z,95.25
2018-02-15T17:17:05.684Z,95.19
2018-02-15T17:19:33.365Z,95.36
2018-02-15T17:22:00.816Z,95.23
2018-02-15T17:24:28.271Z,95.30
2018-02-15T17:26:55.865Z,94.70
2018-02-15T17:29:23.320Z,94.63
2018-02-15T17:31:50.788Z,94.96
2018-02-15T17:34:18.289Z,95.42
2018-02-15T17:36:45.737Z,95.38
2018-02-15T17:39:13.637Z,95.45
2018-02-15T17:41:41.097Z,95.60
2018-02-15T17:44:08.568Z,95.62
2018-02-15T17:46:36.042Z,95.56
2018-02-15T17:49:03.496Z,95.49
2018-02-15T17:51:30.995Z,95.54
2018-02-15T17:53:58.448Z,95.32
2018-02-15T17:56:25.898Z,94.85
2018-02-15T17:58:53.367Z,94.48
2018-02-15T18:01:20.831Z,94.67
2018-02-15T18:03:48.542Z,94.77
2018-02-15T18:06:15.993Z,93.86
2018-02-15T18:08:43.441Z,94.17
2018-02-15T18:11:10.909Z,94.76
2018-02-15T18:13:38.386Z,94.62
2018-02-15T18:16:06.009Z,94.79
2018-02-15T18:18:33.474Z,94.89
2018-02-15T18:21:00.921Z,95.71
2018-02-15T18:23:28.401Z,95.49
2018-02-15T18:25:55.866Z,95.23
2018-02-15T18:28:23.544Z,95.27
2018-02-15T18:30:50.984Z,95.11
2018-02-15T18:33:18.436Z,94.95
2018-02-15T18:35:45.912Z,95.17
2018-02-15T18:38:13.365Z,95.28
2018-02-15T18:40:40.860Z,95.30
2018-02-15T18:43:08.348Z,95.26
2018-02-15T18:45:35.797Z,95.33
2018-02-15T18:48:03.281Z,95.38
2018-02-15T18:50:30.733Z,95.34
2018-02-15T18:52:58.256Z,95.15
2018-02-15T18:55:25.728Z,95.06
2018-02-15T18:57:53.181Z,94.93
2018-02-15T19:00:20.657Z,94.77
2018-02-15T19:02:49.076Z,94.94
2018-02-15T19:05:16.700Z,95.11
2018-02-15T19:07:44.156Z,94.83
2018-02-15T19:10:11.649Z,92.40
2018-02-15T19:12:39.129Z,92.47
2018-02-15T19:15:06.592Z,91.90
2018-02-15T19:17:34.245Z,92.19
2018-02-15T19:20:01.721Z,94.06
2018-02-15T19:22:29.253Z,94.77
2018-02-15T19:24:56.725Z,95.14
2018-02-15T19:27:25.189Z,95.08
2018-02-15T19:29:52.673Z,95.33
2018-02-15T19:32:20.125Z,95.79
2018-02-15T19:34:47.578Z,95.65
2018-02-15T19:37:15.049Z,95.52
2018-02-15T19:39:42.497Z,94.86
2018-02-15T19:42:10.410Z,93.64
2018-02-15T19:44:38.742Z,94.64
2018-02-15T19:47:06.211Z,95.19
2018-02-15T19:49:33.761Z,95.17
2018-02-15T19:52:01.218Z,95.12
2018-02-15T19:54:28.968Z,95.33
2018-02-15T19:56:56.479Z,95.30
2018-02-15T19:59:23.944Z,95.52
2018-02-15T20:01:51.422Z,95.69
2018-02-15T20:04:18.869Z,96.67
2018-02-15T20:06:46.519Z,96.62
2018-02-15T20:09:13.969Z,96.00
2018-02-15T20:11:41.446Z,95.64
2018-02-15T20:14:08.936Z,95.41
2018-02-15T20:16:37.305Z,94.22
2018-02-15T20:19:04.801Z,93.69
2018-02-15T20:21:32.249Z,92.27
2018-02-15T20:23:59.971Z,93.21
2018-02-15T20:26:33.209Z,94.39
2018-02-15T20:29:01.402Z,94.96
2018-02-15T20:31:29.089Z,95.03
2018-02-15T20:33:56.551Z,95.21
2018-02-15T20:36:24.993Z,95.25
2018-02-15T20:38:58.104Z,95.09
2018-02-15T20:41:25.562Z,95.29
2018-02-15T20:43:53.009Z,93.78
2018-02-15T20:46:20.517Z,93.22
2018-02-15T20:48:47.987Z,93.50
2018-02-15T20:51:21.278Z,94.21
2018-02-15T20:53:54.301Z,94.66
2018-02-15T20:56:21.782Z,94.89
2018-02-15T20:58:49.286Z,95.42
2018-02-15T21:01:16.765Z,95.33
2018-02-15T21:03:45.157Z,95.63
2018-02-15T21:06:12.669Z,96.90
2018-02-15T21:08:40.121Z,97.08
2018-02-15T21:11:07.854Z,97.35
2018-02-15T21:13:35.369Z,97.21
2018-02-15T21:16:02.826Z,96.83
2018-02-15T21:18:30.605Z,96.25
2018-02-15T21:20:58.098Z,95.94
2018-02-15T21:23:25.545Z,95.78
2018-02-15T21:25:53.197Z,95.91
2018-02-15T21:28:20.645Z,95.62
2018-02-15T21:30:48.105Z,95.53
2018-02-15T21:33:15.903Z,95.44
2018-02-15T21:35:43.356Z,95.37
2018-02-15T21:38:10.801Z,95.41
2018-02-15T21:40:38.609Z,95.35
2018-02-15T21:43:06.088Z,95.35
2018-02-15T21:45:33.545Z,95.09
2018-02-15T21:48:01.029Z,95.06
2018-02-15T21:50:28.481Z,94.83
2018-02-15T21:52:55.964Z,94.89
2018-02-15T21:55:23.628Z,94.50
2018-02-15T21:57:51.081Z,93.31
2018-02-15T22:00:18.528Z,94.55
2018-02-15T22:02:46.453Z,94.95
2018-02-15T22:05:13.901Z,95.23
2018-02-15T22:07:41.369Z,95.37
2018-02-15T22:10:09.057Z,95.39
2018-02-15T22:12:36.548Z,95.66
2018-02-15T22:15:04.000Z,95.65
2018-02-15T22:17:31.712Z,95.62
2018-02-15T22:19:59.158Z,95.63
2018-02-15T22:22:26.605Z,95.65
2018-02-15T22:24:54.088Z,95.67
2018-02-15T22:27:21.545Z,95.78
2018-02-15T22:29:48.989Z,95.66
2018-02-15T22:32:16.751Z,95.86
2018-02-15T22:34:44.221Z,96.51
2018-02-15T22:37:11.664Z,96.88
2018-02-15T22:39:39.158Z,97.15
2018-02-15T22:42:06.613Z,96.63
2018-02-15T22:44:34.062Z,96.33
2018-02-15T22:47:01.555Z,96.34
2018-02-15T22:49:29.017Z,96.02
2018-02-15T22:51:56.464Z,95.55
2018-02-15T22:54:23.941Z,95.52
2018-02-15T22:56:51.397Z,95.64
2018-02-15T22:59:18.844Z,95.58
2018-02-15T23:01:46.343Z,95.06
2018-02-15T23:04:13.788Z,94.30
2018-02-15T23:06:41.238Z,94.58
2018-02-15T23:09:09.050Z,94.05
2018-02-15T23:11:36.497Z,94.08
2018-02-15T23:14:03.944Z,94.59
2018-02-15T23:16:31.684Z,94.77
2018-02-15T23:18:59.156Z,94.99
2018-02-15T23:21:26.597Z,94.86
2018-02-15T23:23:54.189Z,95.21
2018-02-15T23:26:21.645Z,95.36
2018-02-15T23:28:49.105Z,95.26
2018-02-15T23:31:16.984Z,95.44
2018-02-15T23:33:44.452Z,95.75
2018-02-15T23:36:11.895Z,95.76
2018-02-15T23:38:39.522Z,95.84
2018-02-15T23:41:06.982Z,95.57
2018-02-15T23:43:34.485Z,95.68
2018-02-15T23:46:01.973Z,95.39
2018-02-15T23:48:29.437Z,95.23
2018-02-15T23:50:56.881Z,95.22
2018-02-15T23:53:24.376Z,95.20
2018-02-15T23:55:51.825Z,95.65
2018-02-15T23:58:19.300Z,95.26
